Time;durP1;ratioP1;P1;durP2;ratioP2;P2;SDS_P1;SDS_P2;PMS_P1;PMS_P2;Temp;Humidity;BMP_temperature;BMP_pressure;BME280_temperature;BME280_humidity;BME280_pressure;Samples;Min_cycle;Max_cycle;Signal;HPM_P1;HPM_P2
2022/04/07 00:00:43;;;;;;;4.63;1.48;;;11.90;99.90;;;;;;7340067;19;110574;-85
2022/04/07 00:03:11;;;;;;;4.88;1.35;;;11.90;99.90;;;;;;7343390;19;108383;-86
2022/04/07 00:05:38;;;;;;;6.85;1.40;;;11.90;99.90;;;;;;7338371;19;110697;-85
2022/04/07 00:08:05;;;;;;;6.60;1.45;;;11.90;99.90;;;;;;7334811;19;108776;-86
2022/04/07 00:10:35;;;;;;;5.00;1.45;;;11.90;99.90;;;;;;7338551;19;108606;-85
2022/04/07 00:13:03;;;;;;;3.90;1.20;;;11.90;99.90;;;;;;7340417;19;113082;-85
2022/04/07 00:15:31;;;;;;;5.18;1.48;;;11.90;99.90;;;;;;7339604;19;108935;-86
2022/04/07 00:17:58;;;;;;;5.53;1.60;;;11.80;99.90;;;;;;7340118;19;109643;-85
2022/04/07 00:20:26;;;;;;;6.93;1.55;;;11.90;99.90;;;;;;7338158;19;109937;-85
2022/04/07 00:22:53;;;;;;;6.68;1.83;;;11.80;99.90;;;;;;7343221;19;109524;-85
2022/04/07 00:25:20;;;;;;;7.78;1.40;;;11.90;99.90;;;;;;7339339;19;110592;-85
2022/04/07 00:27:47;;;;;;;7.05;1.65;;;11.90;99.90;;;;;;7338019;19;109429;-84
2022/04/07 00:30:19;;;;;;;8.45;1.45;;;11.90;99.90;;;;;;7339270;19;108578;-84
2022/04/07 00:32:50;;;;;;;8.65;1.70;;;11.90;99.90;;;;;;7338859;19;110182;-85
2022/04/07 00:35:17;;;;;;;6.07;1.55;;;11.90;99.90;;;;;;7338179;19;111627;-84
2022/04/07 00:37:44;;;;;;;10.07;1.90;;;12.00;99.90;;;;;;7339013;19;108829;-85
2022/04/07 00:40:12;;;;;;;5.32;1.45;;;12.00;99.90;;;;;;7336091;19;112796;-85
2022/04/07 00:42:51;;;;;;;8.30;1.80;;;11.90;99.90;;;;;;7335833;19;110670;-85
2022/04/07 00:45:19;;;;;;;5.25;1.73;;;11.90;99.90;;;;;;7343443;19;109910;-84
2022/04/07 00:47:48;;;;;;;5.20;1.40;;;11.90;99.90;;;;;;7339020;19;110502;-84
2022/04/07 00:50:17;;;;;;;7.45;1.83;;;11.90;99.90;;;;;;7339082;19;111794;-85
2022/04/07 00:52:51;;;;;;;5.07;1.30;;;11.90;99.90;;;;;;7338544;19;110500;-84
2022/04/07 00:55:19;;;;;;;4.25;1.40;;;11.90;99.90;;;;;;7339081;19;108397;-85
2022/04/07 00:57:47;;;;;;;6.47;1.40;;;11.80;99.90;;;;;;7335854;19;109451;-85
2022/04/07 01:00:15;;;;;;;7.07;1.55;;;11.80;99.90;;;;;;7338922;19;112406;-85
2022/04/07 01:02:42;;;;;;;10.07;1.58;;;11.90;99.90;;;;;;7336183;19;110180;-84
2022/04/07 01:05:10;;;;;;;3.78;1.30;;;11.80;99.90;;;;;;7336179;19;109495;-84
2022/04/07 01:07:39;;;;;;;6.80;1.48;;;11.80;99.90;;;;;;7342598;19;113041;-84
2022/04/07 01:10:10;;;;;;;6.40;1.88;;;11.80;99.90;;;;;;7338575;19;111740;-84
2022/04/07 01:12:37;;;;;;;6.53;1.30;;;11.80;99.90;;;;;;7337379;19;109904;-86
2022/04/07 01:15:07;;;;;;;8.40;1.45;;;11.80;99.90;;;;;;7336414;19;108532;-85
2022/04/07 01:17:34;;;;;;;7.72;1.88;;;11.80;99.90;;;;;;7336238;19;109264;-85
2022/04/07 01:20:03;;;;;;;6.35;1.55;;;11.80;99.90;;;;;;7338119;19;109943;-84
2022/04/07 01:22:33;;;;;;;5.78;1.40;;;11.80;99.90;;;;;;7336013;19;108785;-84
2022/04/07 01:25:01;;;;;;;7.38;1.33;;;11.70;99.90;;;;;;7336583;19;109153;-84
2022/04/07 01:27:28;;;;;;;6.32;1.48;;;11.80;99.90;;;;;;7339304;19;110699;-84
2022/04/07 01:29:56;;;;;;;8.45;1.70;;;11.80;99.90;;;;;;7350504;19;111285;-86
2022/04/07 01:32:26;;;;;;;7.60;1.65;;;11.70;99.90;;;;;;7344133;19;109742;-84
2022/04/07 01:34:53;;;;;;;8.27;1.70;;;11.70;99.90;;;;;;7344866;19;110511;-85
2022/04/07 01:37:21;;;;;;;7.15;1.50;;;11.70;99.90;;;;;;7344369;19;109299;-84
2022/04/07 01:39:50;;;;;;;10.95;1.80;;;11.70;99.90;;;;;;7343937;19;110248;-84
2022/04/07 01:42:17;;;;;;;9.80;1.88;;;11.70;99.90;;;;;;7344794;19;110356;-85
2022/04/07 01:44:50;;;;;;;8.70;1.63;;;11.80;99.90;;;;;;7344228;19;110238;-85
2022/04/07 01:47:21;;;;;;;8.38;1.85;;;11.80;99.90;;;;;;7342817;19;112120;-84
2022/04/07 01:50:10;;;;;;;12.15;1.67;;;11.90;99.90;;;;;;7344008;19;110843;-84
2022/04/07 01:52:39;;;;;;;6.70;1.42;;;11.90;99.90;;;;;;7349439;19;109780;-85
2022/04/07 01:55:08;;;;;;;5.43;1.48;;;11.90;99.90;;;;;;7341916;19;109067;-84
2022/04/07 01:57:35;;;;;;;4.15;1.27;;;11.90;99.90;;;;;;7342599;19;110277;-85
2022/04/07 02:00:06;;;;;;;5.15;1.50;;;11.90;99.90;;;;;;7341298;19;109285;-85
2022/04/07 02:02:33;;;;;;;8.65;1.77;;;11.80;99.90;;;;;;7343095;19;108324;-85
2022/04/07 02:05:09;;;;;;;7.28;1.50;;;11.90;99.90;;;;;;7340494;19;109468;-87
2022/04/07 02:07:39;;;;;;;9.63;1.80;;;11.80;99.90;;;;;;7340620;19;109571;-84
2022/04/07 02:10:09;;;;;;;9.48;2.15;;;11.90;99.90;;;;;;7342163;19;108859;-86
2022/04/07 02:12:41;;;;;;;6.43;1.70;;;11.80;99.90;;;;;;7347239;19;109114;-84
2022/04/07 02:15:10;;;;;;;4.32;1.58;;;11.80;99.90;;;;;;7343324;19;108689;-85
2022/04/07 02:17:37;;;;;;;6.70;1.40;;;12.00;99.90;;;;;;7341696;19;110084;-85
2022/04/07 02:20:06;;;;;;;6.38;1.60;;;12.00;99.90;;;;;;7341388;19;110440;-84
2022/04/07 02:22:34;;;;;;;9.55;1.85;;;12.00;99.90;;;;;;7343121;19;108381;-86
2022/04/07 02:25:01;;;;;;;6.05;1.67;;;11.90;99.90;;;;;;7343457;19;111937;-86
2022/04/07 02:27:36;;;;;;;7.88;2.10;;;12.00;99.90;;;;;;7340718;19;110281;-86
2022/04/07 02:30:08;;;;;;;3.92;1.40;;;12.00;99.90;;;;;;7343439;19;108119;-84
2022/04/07 02:32:36;;;;;;;9.75;1.60;;;12.00;99.90;;;;;;7341699;19;109781;-84
2022/04/07 02:35:04;;;;;;;7.55;1.58;;;11.90;99.90;;;;;;7347997;19;113731;-85
2022/04/07 02:37:31;;;;;;;8.93;1.42;;;11.90;99.90;;;;;;7342938;19;111361;-84
2022/04/07 02:39:57;;;;;;;7.50;1.53;;;12.00;99.90;;;;;;7342176;19;110076;-86
2022/04/07 02:42:24;;;;;;;10.43;1.70;;;12.00;99.90;;;;;;7339152;19;109745;-85
2022/04/07 02:44:51;;;;;;;9.95;1.75;;;12.00;99.90;;;;;;7341744;19;108725;-85
2022/04/07 02:47:32;;;;;;;10.45;1.88;;;12.00;99.90;;;;;;7339939;19;110122;-85
2022/04/07 02:50:00;;;;;;;10.73;2.10;;;12.00;99.90;;;;;;7342025;19;108508;-84
2022/04/07 02:52:27;;;;;;;6.82;1.48;;;12.00;99.90;;;;;;7341703;19;109371;-85
2022/04/07 02:54:54;;;;;;;10.35;1.77;;;12.00;99.90;;;;;;7342015;19;110046;-85
2022/04/07 02:57:25;;;;;;;7.65;1.30;;;12.00;99.90;;;;;;7345585;19;110018;-85
2022/04/07 02:59:52;;;;;;;7.25;1.70;;;12.00;99.90;;;;;;7339723;19;110040;-86
2022/04/07 03:02:19;;;;;;;7.25;1.30;;;12.00;99.90;;;;;;7339761;19;108681;-85
2022/04/07 03:04:47;;;;;;;8.13;1.80;;;12.00;99.90;;;;;;7340742;19;112540;-86
2022/04/07 03:07:14;;;;;;;5.55;1.63;;;12.00;99.90;;;;;;7340610;19;110201;-85
2022/04/07 03:09:42;;;;;;;6.20;1.60;;;12.00;99.90;;;;;;7340081;19;108938;-86
2022/04/07 03:12:09;;;;;;;8.65;1.83;;;12.00;99.90;;;;;;7340921;19;112049;-84
2022/04/07 03:14:36;;;;;;;10.75;1.52;;;12.00;99.90;;;;;;7339192;19;110323;-86
2022/04/07 03:17:04;;;;;;;6.88;1.40;;;12.10;99.90;;;;;;7340533;19;109299;-86
2022/04/07 03:19:31;;;;;;;7.05;1.60;;;12.10;99.90;;;;;;7345792;19;111355;-85
2022/04/07 03:21:58;;;;;;;5.45;1.77;;;12.10;99.90;;;;;;7340633;19;108212;-85
2022/04/07 03:24:25;;;;;;;6.82;1.63;;;12.10;99.90;;;;;;7341173;19;109496;-85
2022/04/07 03:27:05;;;;;;;9.38;1.90;;;12.00;99.90;;;;;;7338793;19;112755;-85
2022/04/07 03:29:34;;;;;;;5.03;1.15;;;12.10;99.90;;;;;;7338806;19;108438;-86
2022/04/07 03:32:02;;;;;;;7.00;1.80;;;12.10;99.90;;;;;;7340972;19;109373;-83
2022/04/07 03:34:29;;;;;;;5.68;1.48;;;12.10;99.90;;;;;;7342086;19;110217;-84
2022/04/07 03:36:56;;;;;;;6.93;1.33;;;12.10;99.90;;;;;;7341888;19;108649;-84
2022/04/07 03:39:23;;;;;;;4.05;1.25;;;12.10;99.90;;;;;;7337984;19;109441;-85
2022/04/07 03:41:50;;;;;;;3.55;1.08;;;12.10;99.90;;;;;;7345762;19;111169;-84
2022/04/07 03:44:18;;;;;;;4.95;1.50;;;12.10;99.90;;;;;;7338665;19;109606;-84
2022/04/07 03:46:45;;;;;;;4.30;1.10;;;12.00;99.90;;;;;;7338711;19;110304;-84
2022/04/07 03:49:12;;;;;;;4.38;1.30;;;12.10;99.90;;;;;;7336509;19;108575;-83
2022/04/07 03:51:39;;;;;;;3.03;1.20;;;12.10;99.90;;;;;;7337648;19;109642;-84
2022/04/07 03:54:10;;;;;;;2.33;1.02;;;12.10;99.90;;;;;;7340199;19;111185;-84
2022/04/07 03:56:37;;;;;;;7.10;1.30;;;12.10;99.90;;;;;;7341501;19;110078;-84
2022/04/07 03:59:04;;;;;;;3.28;1.40;;;12.10;99.90;;;;;;7340332;19;111935;-82
2022/04/07 04:01:31;;;;;;;4.05;0.90;;;12.10;99.90;;;;;;7339482;19;112438;-82
2022/04/07 04:03:58;;;;;;;3.20;0.90;;;12.20;99.90;;;;;;7340953;19;109824;-84
2022/04/07 04:06:25;;;;;;;2.55;1.10;;;12.10;99.90;;;;;;7339469;19;109546;-83
2022/04/07 04:08:52;;;;;;;2.85;0.80;;;12.10;99.90;;;;;;7336342;19;110642;-84
2022/04/07 04:11:19;;;;;;;5.10;1.00;;;12.10;99.90;;;;;;7339303;19;109832;-83
2022/04/07 04:13:47;;;;;;;2.50;1.00;;;12.10;99.90;;;;;;7337725;19;110063;-85
2022/04/07 04:16:17;;;;;;;3.38;1.02;;;12.10;99.90;;;;;;7338564;19;108502;-85
2022/04/07 04:18:45;;;;;;;2.65;1.10;;;12.00;99.90;;;;;;7340724;19;109004;-83
2022/04/07 04:21:12;;;;;;;2.80;0.90;;;12.00;99.90;;;;;;7339876;19;110367;-84
2022/04/07 04:23:40;;;;;;;4.03;0.90;;;12.00;99.90;;;;;;7344285;19;108283;-83
2022/04/07 04:26:08;;;;;;;1.35;0.70;;;11.90;99.90;;;;;;7338782;19;110540;-84
2022/04/07 04:28:35;;;;;;;2.83;0.93;;;11.90;99.90;;;;;;7339147;19;108596;-85
2022/04/07 04:31:02;;;;;;;3.72;0.80;;;11.90;99.90;;;;;;7339817;19;109347;-83
2022/04/07 04:33:29;;;;;;;3.72;0.93;;;11.80;99.90;;;;;;7339280;19;110517;-84
2022/04/07 04:35:58;;;;;;;2.30;0.75;;;11.80;99.90;;;;;;7338360;19;109091;-83
2022/04/07 04:38:26;;;;;;;3.63;0.98;;;11.80;99.90;;;;;;7336311;19;109974;-84
2022/04/07 04:40:54;;;;;;;4.43;1.10;;;11.80;99.90;;;;;;7338198;19;111733;-84
2022/04/07 04:43:24;;;;;;;4.38;1.00;;;11.80;99.90;;;;;;7335104;19;109590;-84
2022/04/07 04:45:52;;;;;;;2.70;1.05;;;11.80;99.90;;;;;;7343280;19;111582;-84
2022/04/07 04:48:19;;;;;;;2.65;1.13;;;11.70;99.90;;;;;;7338038;19;108464;-83
2022/04/07 04:50:49;;;;;;;3.67;1.20;;;11.70;99.90;;;;;;7336160;19;109530;-85
2022/04/07 04:53:16;;;;;;;3.38;1.33;;;11.80;99.90;;;;;;7337835;19;113257;-84
2022/04/07 04:55:43;;;;;;;4.35;1.60;;;11.70;99.90;;;;;;7338777;19;108402;-82
2022/04/07 04:58:10;;;;;;;2.75;1.38;;;11.80;99.90;;;;;;7339894;19;109448;-82
2022/04/07 05:00:37;;;;;;;7.53;1.65;;;11.70;99.90;;;;;;7336503;19;110394;-83
2022/04/07 05:03:04;;;;;;;9.13;1.58;;;11.70;99.90;;;;;;7338543;19;109195;-83
2022/04/07 05:05:31;;;;;;;6.70;1.52;;;11.70;99.90;;;;;;7340785;19;110212;-82
2022/04/07 05:07:58;;;;;;;4.70;1.50;;;11.70;99.90;;;;;;7349469;19;111100;-84
2022/04/07 05:10:26;;;;;;;4.55;1.60;;;11.70;99.90;;;;;;7344663;19;111269;-81
2022/04/07 05:12:53;;;;;;;7.85;1.60;;;11.70;99.90;;;;;;7343753;19;110489;-82
2022/04/07 05:15:20;;;;;;;5.25;1.70;;;11.70;99.90;;;;;;7342766;19;110653;-82
2022/04/07 05:17:52;;;;;;;4.30;1.30;;;11.70;99.90;;;;;;7339743;19;109234;-83
2022/04/07 05:20:20;;;;;;;4.43;1.23;;;11.70;99.90;;;;;;7342675;19;110399;-82
2022/04/07 05:22:47;;;;;;;3.90;1.27;;;11.70;99.90;;;;;;7345145;19;109076;-82
2022/04/07 05:25:14;;;;;;;4.38;1.40;;;11.70;99.90;;;;;;7343489;19;112262;-81
2022/04/07 05:27:45;;;;;;;5.03;1.20;;;11.70;99.90;;;;;;7345293;19;111467;-83
2022/04/07 05:30:13;;;;;;;6.82;1.38;;;11.70;99.90;;;;;;7347852;19;109174;-82
2022/04/07 05:32:40;;;;;;;6.57;1.40;;;11.70;99.90;;;;;;7342617;19;109665;-83
2022/04/07 05:35:09;;;;;;;6.28;1.30;;;11.70;99.90;;;;;;7344379;19;108849;-82
2022/04/07 05:37:36;;;;;;;5.40;1.10;;;11.70;99.90;;;;;;7344244;19;110296;-82
2022/04/07 05:40:04;;;;;;;7.25;1.20;;;11.70;99.90;;;;;;7344191;19;110759;-83
2022/04/07 05:42:31;;;;;;;4.20;1.00;;;11.60;99.90;;;;;;7343813;19;108416;-82
2022/04/07 05:44:58;;;;;;;3.78;1.00;;;11.70;99.90;;;;;;7343516;19;109228;-83
2022/04/07 05:47:26;;;;;;;7.38;1.40;;;11.70;99.90;;;;;;7343823;19;112095;-83
2022/04/07 05:49:54;;;;;;;5.45;1.33;;;11.60;99.90;;;;;;7340239;19;108860;-82
2022/04/07 05:52:22;;;;;;;5.10;1.20;;;11.60;99.90;;;;;;7349227;19;111987;-83
2022/04/07 05:54:49;;;;;;;5.85;1.60;;;11.60;99.90;;;;;;7343880;19;108813;-82
2022/04/07 05:57:16;;;;;;;3.78;1.50;;;11.50;99.90;;;;;;7343966;19;109479;-83
2022/04/07 05:59:43;;;;;;;10.68;1.85;;;11.40;99.90;;;;;;7344582;19;110294;-83
2022/04/07 06:02:10;;;;;;;6.22;1.75;;;11.40;99.90;;;;;;7344529;19;108674;-86
2022/04/07 06:04:39;;;;;;;6.72;1.33;;;11.40;99.90;;;;;;7341940;19;109023;-83
2022/04/07 06:07:06;;;;;;;6.78;1.30;;;11.50;99.90;;;;;;7343688;19;110097;-82
2022/04/07 06:09:35;;;;;;;4.80;1.20;;;11.50;99.90;;;;;;7342577;19;108800;-83
2022/04/07 06:12:02;;;;;;;8.02;2.20;;;11.40;99.90;;;;;;7343232;19;108843;-81
2022/04/07 06:14:29;;;;;;;6.47;1.20;;;11.40;99.90;;;;;;7347607;19;110432;-82
2022/04/07 06:16:56;;;;;;;4.55;1.20;;;11.30;99.90;;;;;;7341346;19;109560;-82
2022/04/07 06:19:23;;;;;;;7.10;1.35;;;11.30;99.90;;;;;;7340435;19;110178;-82
2022/04/07 06:21:50;;;;;;;5.95;1.20;;;11.30;99.90;;;;;;7342821;19;108755;-82
2022/04/07 06:24:18;;;;;;;4.95;1.30;;;11.30;99.90;;;;;;7341778;19;111046;-83
2022/04/07 06:26:45;;;;;;;7.28;1.20;;;11.30;99.90;;;;;;7341736;19;110643;-83
2022/04/07 06:29:13;;;;;;;3.47;1.00;;;11.30;99.90;;;;;;7338801;19;110116;-83
2022/04/07 06:31:40;;;;;;;5.90;1.60;;;11.40;99.90;;;;;;7343943;19;110795;-83
2022/04/07 06:34:22;;;;;;;7.15;1.58;;;11.30;99.90;;;;;;7348180;19;110305;-83
2022/04/07 06:36:49;;;;;;;4.90;1.48;;;11.30;99.90;;;;;;7344026;19;109399;-82
2022/04/07 06:39:16;;;;;;;6.00;1.35;;;11.30;99.90;;;;;;7340874;19;110082;-83
2022/04/07 06:41:43;;;;;;;3.85;1.33;;;11.40;99.90;;;;;;7343254;19;108583;-84
2022/04/07 06:44:11;;;;;;;4.78;1.50;;;11.50;99.90;;;;;;7341392;19;109515;-83
2022/04/07 06:46:38;;;;;;;3.58;1.38;;;11.50;99.90;;;;;;7342205;19;110192;-82
2022/04/07 06:49:05;;;;;;;8.50;1.60;;;11.50;99.90;;;;;;7343267;19;108722;-83
2022/04/07 06:51:32;;;;;;;6.65;1.30;;;11.50;99.90;;;;;;7341921;19;111389;-83
2022/04/07 06:53:59;;;;;;;2.88;1.15;;;11.50;99.90;;;;;;7343118;19;110515;-83
2022/04/07 06:56:26;;;;;;;5.68;1.45;;;11.60;99.90;;;;;;7348306;19;108524;-82
2022/04/07 06:58:54;;;;;;;5.65;1.10;;;11.50;99.90;;;;;;7343294;19;110921;-83
2022/04/07 07:01:21;;;;;;;3.90;1.17;;;11.60;99.90;;;;;;7343372;19;108736;-82
2022/04/07 07:03:49;;;;;;;4.68;1.40;;;11.60;99.90;;;;;;7341427;19;110175;-82
2022/04/07 07:06:16;;;;;;;3.40;1.33;;;11.70;99.90;;;;;;7342630;19;110138;-82
2022/04/07 07:08:43;;;;;;;5.28;1.25;;;11.60;99.90;;;;;;7342252;19;109014;-81
2022/04/07 07:11:10;;;;;;;4.60;1.50;;;11.60;99.90;;;;;;7339918;19;111480;-82
2022/04/07 07:13:37;;;;;;;4.95;1.50;;;11.60;99.90;;;;;;7342182;19;110866;-82
2022/04/07 07:16:05;;;;;;;4.78;1.63;;;11.70;99.90;;;;;;7343034;19;108344;-82
2022/04/07 07:18:32;;;;;;;3.05;1.85;;;11.80;99.90;;;;;;7347195;19;109428;-81
2022/04/07 07:20:59;;;;;;;2.92;1.70;;;11.80;99.90;;;;;;7342616;19;111844;-82
2022/04/07 07:23:26;;;;;;;5.07;2.25;;;11.90;99.90;;;;;;7342251;19;109512;-81
2022/04/07 07:25:53;;;;;;;3.05;1.70;;;11.90;99.90;;;;;;7337217;19;110210;-82
2022/04/07 07:28:20;;;;;;;5.88;1.83;;;11.90;99.90;;;;;;7340853;19;109349;-82
2022/04/07 07:30:47;;;;;;;3.50;2.20;;;11.90;99.90;;;;;;7340474;19;109849;-82
2022/04/07 07:33:14;;;;;;;2.58;1.90;;;11.90;99.90;;;;;;7342132;19;110486;-82
2022/04/07 07:35:45;;;;;;;3.33;2.15;;;11.90;99.90;;;;;;7342370;19;109624;-83
2022/04/07 07:38:13;;;;;;;3.95;2.63;;;11.90;99.90;;;;;;7339493;19;109771;-83
2022/04/07 07:40:40;;;;;;;3.65;2.40;;;11.90;99.90;;;;;;7347500;19;110752;-82
2022/04/07 07:43:07;;;;;;;3.45;2.00;;;12.00;99.90;;;;;;7341730;19;109152;-81
2022/04/07 07:45:35;;;;;;;5.05;1.60;;;12.00;99.90;;;;;;7341503;19;109063;-82
2022/04/07 07:48:25;;;;;;;4.15;1.70;;;12.00;99.90;;;;;;7342310;19;110702;-81
2022/04/07 07:50:52;;;;;;;2.92;1.50;;;12.00;99.90;;;;;;7340146;19;109938;-83
2022/04/07 07:53:20;;;;;;;2.10;1.30;;;12.10;99.90;;;;;;7341419;19;110244;-83
2022/04/07 07:55:48;;;;;;;3.65;0.50;;;12.10;99.90;;;;;;7341380;19;108769;-83
2022/04/07 07:58:15;;;;;;;1.95;0.38;;;12.30;99.90;;;;;;7339788;19;110119;-83
2022/04/07 08:00:42;;;;;;;1.48;0.40;;;12.20;99.90;;;;;;7341899;19;110492;-82
2022/04/07 08:03:09;;;;;;;1.98;0.60;;;12.10;99.90;;;;;;7344490;19;108840;-84
2022/04/07 08:05:36;;;;;;;1.95;0.30;;;11.80;99.90;;;;;;7341666;19;111092;-84
2022/04/07 08:08:04;;;;;;;2.30;0.52;;;11.70;99.90;;;;;;7340452;19;108999;-83
2022/04/07 08:10:31;;;;;;;2.63;0.55;;;11.70;99.90;;;;;;7338408;19;109515;-84
2022/04/07 08:12:59;;;;;;;0.98;0.30;;;11.50;99.90;;;;;;7339421;19;111372;-84
2022/04/07 08:15:27;;;;;;;0.88;0.50;;;11.40;99.90;;;;;;7341766;19;108312;-83
2022/04/07 08:17:54;;;;;;;1.67;0.65;;;11.30;99.90;;;;;;7341313;19;109125;-83
2022/04/07 08:20:22;;;;;;;1.90;0.68;;;11.30;99.90;;;;;;7339117;19;110232;-83
2022/04/07 08:22:49;;;;;;;1.48;0.70;;;11.40;99.90;;;;;;7341029;19;108316;-82
2022/04/07 08:25:16;;;;;;;0.68;0.50;;;11.40;99.90;;;;;;7345982;19;112798;-83
2022/04/07 08:27:45;;;;;;;2.05;0.55;;;11.50;99.90;;;;;;7338804;19;109096;-83
2022/04/07 08:30:12;;;;;;;1.02;0.45;;;11.60;99.90;;;;;;7339563;19;109897;-83
2022/04/07 08:32:39;;;;;;;0.65;0.40;;;11.60;99.90;;;;;;7338500;19;113242;-83
2022/04/07 08:35:09;;;;;;;0.50;0.30;;;11.70;99.90;;;;;;7337902;19;110353;-84
2022/04/07 08:37:37;;;;;;;0.80;0.32;;;11.70;99.90;;;;;;7336414;19;112600;-84
2022/04/07 08:40:07;;;;;;;0.82;0.40;;;11.80;99.90;;;;;;7339628;19;110473;-84
2022/04/07 08:42:36;;;;;;;2.50;0.52;;;11.90;99.90;;;;;;7338610;19;108595;-83
2022/04/07 08:45:04;;;;;;;0.85;0.32;;;12.00;99.90;;;;;;7343895;19;109526;-84
2022/04/07 08:47:37;;;;;;;1.17;0.50;;;12.10;99.90;;;;;;7339814;19;108707;-84
2022/04/07 08:50:04;;;;;;;1.80;0.45;;;12.10;99.90;;;;;;7337659;19;112581;-84
2022/04/07 08:52:33;;;;;;;1.58;0.50;;;12.00;99.90;;;;;;7339971;19;110259;-84
2022/04/07 08:55:01;;;;;;;1.63;0.57;;;12.00;99.90;;;;;;7340710;19;108505;-84
2022/04/07 08:57:31;;;;;;;1.00;0.55;;;12.00;99.90;;;;;;7338297;19;109430;-84
2022/04/07 08:59:58;;;;;;;2.15;0.55;;;12.10;99.90;;;;;;7338182;19;110477;-83
2022/04/07 09:02:25;;;;;;;1.98;0.47;;;12.10;99.90;;;;;;7339242;19;108406;-83
2022/04/07 09:04:59;;;;;;;1.40;0.50;;;12.10;99.90;;;;;;7337763;19;111551;-85
2022/04/07 09:07:33;;;;;;;2.25;0.50;;;12.10;99.90;;;;;;7344515;19;111365;-83
2022/04/07 09:10:02;;;;;;;2.25;0.60;;;12.10;99.90;;;;;;7339274;19;109875;-84
2022/04/07 09:12:30;;;;;;;1.83;0.60;;;12.10;99.90;;;;;;7337361;19;111376;-84
2022/04/07 09:14:59;;;;;;;4.13;0.57;;;12.10;99.90;;;;;;7340154;19;108481;-83
2022/04/07 09:17:29;;;;;;;1.48;0.40;;;12.20;99.90;;;;;;7339810;19;109556;-85
2022/04/07 09:19:56;;;;;;;1.88;0.60;;;12.20;99.90;;;;;;7338114;19;110107;-85
2022/04/07 09:22:30;;;;;;;4.03;0.57;;;12.30;99.90;;;;;;7337466;19;108405;-84
2022/04/07 09:25:07;;;;;;;2.70;0.40;;;12.30;99.90;;;;;;7339295;19;110058;-83
2022/04/07 09:27:38;;;;;;;3.17;0.60;;;12.50;99.90;;;;;;7338691;19;110072;-83
2022/04/07 09:30:08;;;;;;;2.08;0.50;;;12.50;99.90;;;;;;7344193;19;108415;-84
2022/04/07 09:32:44;;;;;;;2.72;0.82;;;12.60;99.90;;;;;;7338707;19;110144;-84
2022/04/07 09:35:12;;;;;;;1.17;0.50;;;12.60;99.90;;;;;;7339604;19;108763;-84
2022/04/07 09:37:40;;;;;;;2.25;0.70;;;12.80;99.90;;;;;;7337007;19;108930;-85
2022/04/07 09:40:16;;;;;;;1.70;0.90;;;12.90;99.90;;;;;;7337425;19;110248;-85
2022/04/07 09:42:43;;;;;;;1.90;0.55;;;13.00;99.90;;;;;;7338748;19;109432;-84
2022/04/07 09:45:12;;;;;;;4.15;0.73;;;13.00;99.90;;;;;;7339202;19;111701;-84
2022/04/07 09:47:48;;;;;;;4.72;0.73;;;13.20;99.90;;;;;;7336778;19;113685;-85
2022/04/07 09:50:24;;;;;;;2.53;0.75;;;13.30;99.90;;;;;;7343107;19;108426;-85
2022/04/07 09:53:05;;;;;;;3.58;0.68;;;13.40;99.90;;;;;;7350672;19;109372;-85
2022/04/07 09:55:37;;;;;;;1.58;0.57;;;13.40;99.90;;;;;;7345842;19;108861;-84
2022/04/07 09:58:07;;;;;;;4.63;0.80;;;13.40;99.90;;;;;;7343236;19;109683;-83
2022/04/07 10:00:35;;;;;;;3.65;0.73;;;13.60;99.90;;;;;;7343078;19;110271;-83
2022/04/07 10:03:04;;;;;;;5.22;0.60;;;13.40;99.90;;;;;;7344371;19;108498;-85
2022/04/07 10:05:32;;;;;;;3.30;0.70;;;13.40;99.90;;;;;;7342643;19;109744;-83
2022/04/07 10:08:01;;;;;;;3.45;0.73;;;13.50;99.90;;;;;;7342501;19;111033;-84
2022/04/07 10:10:29;;;;;;;3.67;0.73;;;13.50;99.90;;;;;;7344522;19;111228;-83
2022/04/07 10:13:00;;;;;;;1.92;0.50;;;13.70;99.90;;;;;;7344338;19;112616;-84
2022/04/07 10:15:27;;;;;;;4.57;0.75;;;13.60;99.90;;;;;;7350578;19;110190;-84
2022/04/07 10:18:00;;;;;;;3.47;0.80;;;13.60;99.90;;;;;;7345082;19;110259;-84
2022/04/07 10:20:34;;;;;;;5.50;1.02;;;13.80;99.90;;;;;;7342630;19;112556;-85
2022/04/07 10:23:21;;;;;;;3.60;0.80;;;13.90;99.90;;;;;;7345402;19;108885;-84
2022/04/07 10:25:49;;;;;;;6.10;0.97;;;13.90;99.90;;;;;;7344616;19;109450;-83
2022/04/07 10:28:21;;;;;;;3.95;0.57;;;14.00;99.90;;;;;;7343300;19;110259;-84
2022/04/07 10:30:51;;;;;;;4.70;0.95;;;14.00;99.90;;;;;;7343800;19;108335;-84
2022/04/07 10:33:47;;;;;;;4.82;0.95;;;14.20;99.90;;;;;;7343027;19;112986;-83
2022/04/07 10:36:23;;;;;;;7.53;0.85;;;14.20;99.90;;;;;;7341982;19;110024;-83
2022/04/07 10:38:52;;;;;;;4.53;1.15;;;14.30;99.90;;;;;;7347216;19;110002;-84
2022/04/07 10:41:37;;;;;;;3.58;0.90;;;14.40;99.90;;;;;;7339331;19;111673;-83
2022/04/07 10:44:15;;;;;;;4.60;0.88;;;14.40;99.50;;;;;;7343081;19;109182;-84
2022/04/07 10:46:43;;;;;;;5.35;0.80;;;14.30;99.60;;;;;;7342847;19;109807;-83
2022/04/07 10:49:18;;;;;;;8.18;1.13;;;14.20;99.90;;;;;;7340150;19;113361;-84
2022/04/07 10:51:54;;;;;;;5.85;1.02;;;14.40;99.90;;;;;;7340880;19;110915;-84
2022/04/07 10:54:22;;;;;;;4.13;0.98;;;14.60;99.90;;;;;;7340257;19;111522;-80
2022/04/07 10:56:55;;;;;;;4.68;1.15;;;14.70;99.90;;;;;;7341000;19;113513;-87
2022/04/07 10:59:31;;;;;;;5.72;1.02;;;14.70;99.90;;;;;;7346657;19;109828;-84
2022/04/07 11:02:10;;;;;;;5.45;0.90;;;14.80;99.90;;;;;;7343634;19;110308;-83
2022/04/07 11:04:42;;;;;;;6.85;1.20;;;14.90;99.10;;;;;;7340383;19;111445;-84
2022/04/07 11:07:15;;;;;;;5.13;1.15;;;14.90;98.70;;;;;;7340337;19;109451;-82
2022/04/07 11:09:58;;;;;;;5.75;1.13;;;14.90;98.80;;;;;;7340275;19;110581;-83
2022/04/07 11:12:33;;;;;;;7.00;1.50;;;15.00;98.40;;;;;;7339773;19;108881;-83
2022/04/07 11:15:03;;;;;;;3.33;1.00;;;14.90;97.90;;;;;;7341690;19;109494;-84
2022/04/07 11:17:37;;;;;;;6.18;1.10;;;15.10;97.40;;;;;;7341275;19;110363;-84
2022/04/07 11:20:15;;;;;;;4.57;0.90;;;14.90;97.50;;;;;;7341927;19;108328;-82
2022/04/07 11:22:47;;;;;;;;;;;14.90;98.00;;;;;;7346937;19;109036;-83
2022/04/07 11:25:23;;;;;;;4.28;0.98;;;14.90;96.90;;;;;;7342645;19;109495;-82
2022/04/07 11:28:13;;;;;;;5.30;0.90;;;14.80;96.80;;;;;;7338239;19;109902;-82
2022/04/07 11:30:52;;;;;;;4.20;1.10;;;14.80;96.30;;;;;;7340672;19;110216;-82
2022/04/07 11:33:19;;;;;;;9.48;1.35;;;14.80;95.90;;;;;;7341444;19;108130;-83
2022/04/07 11:35:58;;;;;;;4.93;1.25;;;14.80;95.50;;;;;;7340359;19;111720;-82
2022/04/07 11:38:30;;;;;;;9.48;1.75;;;14.60;95.90;;;;;;7339974;19;109737;-83
2022/04/07 11:40:58;;;;;;;8.38;1.20;;;14.60;96.60;;;;;;7341666;19;108523;-83
2022/04/07 11:43:25;;;;;;;6.22;1.33;;;14.60;97.80;;;;;;7340451;19;109777;-82
2022/04/07 11:45:56;;;;;;;13.63;1.55;;;14.90;96.80;;;;;;7344015;19;112808;-85
2022/04/07 11:48:43;;;;;;;6.35;1.70;;;15.10;96.00;;;;;;7339924;19;112212;-86
2022/04/07 11:51:17;;;;;;;10.25;1.60;;;14.90;96.50;;;;;;7334860;19;113765;-86
2022/04/07 11:53:55;;;;;;;10.65;1.88;;;14.90;96.80;;;;;;7336307;19;109720;-86
2022/04/07 11:56:27;;;;;;;7.05;1.55;;;15.10;95.20;;;;;;7341128;19;112460;-86
2022/04/07 11:58:58;;;;;;;7.75;1.35;;;15.20;93.50;;;;;;7340928;19;109501;-88
2022/04/07 12:01:25;;;;;;;6.75;1.35;;;14.90;93.20;;;;;;7341514;19;108512;-87
2022/04/07 12:03:58;;;;;;;9.32;1.95;;;14.70;93.80;;;;;;7340126;19;109127;-87
2022/04/07 12:06:28;;;;;;;14.25;1.80;;;14.60;94.80;;;;;;7339496;19;109747;-86
2022/04/07 12:08:56;;;;;;;10.02;1.90;;;14.50;95.40;;;;;;7343550;19;108671;-85
2022/04/07 12:11:28;;;;;;;9.80;1.58;;;14.60;96.20;;;;;;7337391;19;110057;-90
2022/04/07 12:13:56;;;;;;;9.48;1.63;;;14.60;94.30;;;;;;7340830;19;108729;-88
2022/04/07 12:16:25;;;;;;;10.07;1.77;;;14.60;94.30;;;;;;7340962;19;109825;-88
2022/04/07 12:18:59;;;;;;;8.88;1.63;;;14.60;93.50;;;;;;7339413;19;110299;-87
2022/04/07 12:21:28;;;;;;;13.65;1.65;;;14.50;94.30;;;;;;7339485;19;110180;-89
2022/04/07 12:24:14;;;;;;;8.45;2.00;;;14.80;94.10;;;;;;7337390;19;109842;-87
2022/04/07 12:26:47;;;;;;;13.65;2.55;;;14.90;94.30;;;;;;7340646;19;110266;-85
2022/04/07 12:29:26;;;;;;;12.77;2.00;;;15.20;93.40;;;;;;7337858;19;108561;-87
2022/04/07 12:32:03;;;;;;;13.25;1.90;;;15.40;93.20;;;;;;7342656;19;109881;-88
2022/04/07 12:34:30;;;;;;;12.55;1.80;;;15.50;92.50;;;;;;7339395;19;109397;-85
2022/04/07 12:36:58;;;;;;;10.95;1.77;;;15.30;92.40;;;;;;7339855;19;112379;-85
2022/04/07 12:39:34;;;;;;;7.40;1.67;;;15.30;92.10;;;;;;7339131;19;112388;-86
2022/04/07 12:42:10;;;;;;;8.18;1.25;;;15.30;92.10;;;;;;7340764;19;108756;-85
2022/04/07 12:44:43;;;;;;;9.23;1.60;;;15.30;90.90;;;;;;7340251;19;109820;-86
2022/04/07 12:47:15;;;;;;;8.93;1.55;;;15.20;91.50;;;;;;7339368;19;110655;-85